sensor_id;sensor_type;location;lat;lon;timestamp;temperature;humidity
1570;DHT22;778;50.120;8.698;2023-04-15T00:00:02;9.50;99.90
1570;DHT22;778;50.120;8.698;2023-04-15T00:02:38;9.40;99.90
1570;DHT22;778;50.120;8.698;2023-04-15T00:05:08;9.30;99.90
1570;DHT22;778;50.120;8.698;2023-04-15T00:07:36;9.20;99.90
1570;DHT22;778;50.120;8.698;2023-04-15T00:10:07;9.20;99.90
1570;DHT22;778;50.120;8.698;2023-04-15T00:12:36;9.20;99.90
1570;DHT22;778;50.120;8.698;2023-04-15T00:15:07;9.20;99.90
1570;DHT22;778;50.120;8.698;2023-04-15T00:17:36;9.20;99.90
1570;DHT22;778;50.120;8.698;2023-04-15T00:20:06;9.20;99.90
1570;DHT22;778;50.120;8.698;2023-04-15T00:22:35;9.20;99.90
1570;DHT22;778;50.120;8.698;2023-04-15T00:25:04;9.10;99.90
1570;DHT22;778;50.120;8.698;2023-04-15T00:27:32;9.10;99.90
1570;DHT22;778;50.120;8.698;2023-04-15T00:30:01;9.10;99.90
1570;DHT22;778;50.120;8.698;2023-04-15T00:32:31;9.10;99.90
1570;DHT22;778;50.120;8.698;2023-04-15T00:35:00;9.00;99.90
1570;DHT22;778;50.120;8.698;2023-04-15T00:37:29;9.00;99.90
1570;DHT22;778;50.120;8.698;2023-04-15T00:39:57;9.00;99.90
1570;DHT22;778;50.120;8.698;2023-04-15T00:42:26;9.00;99.90
1570;DHT22;778;50.120;8.698;2023-04-15T00:44:55;9.00;99.90
1570;DHT22;778;50.120;8.698;2023-04-15T00:47:24;9.00;99.90
1570;DHT22;778;50.120;8.698;2023-04-15T00:49:56;9.00;99.90
1570;DHT22;778;50.120;8.698;2023-04-15T00:52:25;9.00;99.90
1570;DHT22;778;50.120;8.698;2023-04-15T00:54:53;8.90;99.90
1570;DHT22;778;50.120;8.698;2023-04-15T00:57:22;8.90;99.90
1570;DHT22;778;50.120;8.698;2023-04-15T00:59:51;8.90;99.90
1570;DHT22;778;50.120;8.698;2023-04-15T01:02:20;8.90;99.90
1570;DHT22;778;50.120;8.698;2023-04-15T01:04:49;8.90;99.90
1570;DHT22;778;50.120;8.698;2023-04-15T01:07:19;8.80;99.90
1570;DHT22;778;50.120;8.698;2023-04-15T01:09:47;8.70;99.90
1570;DHT22;778;50.120;8.698;2023-04-15T01:12:16;8.70;99.90
1570;DHT22;778;50.120;8.698;2023-04-15T01:14:45;8.70;99.90
1570;DHT22;778;50.120;8.698;2023-04-15T01:17:13;8.70;99.90
1570;DHT22;778;50.120;8.698;2023-04-15T01:19:42;8.70;99.90
1570;DHT22;778;50.120;8.698;2023-04-15T01:22:10;8.60;99.90
1570;DHT22;778;50.120;8.698;2023-04-15T01:24:43;8.70;99.90
1570;DHT22;778;50.120;8.698;2023-04-15T01:27:19;8.70;99.90
1570;DHT22;778;50.120;8.698;2023-04-15T01:29:48;8.70;99.90
1570;DHT22;778;50.120;8.698;2023-04-15T01:32:16;8.70;99.90
1570;DHT22;778;50.120;8.698;2023-04-15T01:34:45;8.70;99.90
1570;DHT22;778;50.120;8.698;2023-04-15T01:37:14;8.80;99.90
1570;DHT22;778;50.120;8.698;2023-04-15T01:39:42;8.70;99.90
1570;DHT22;778;50.120;8.698;2023-04-15T01:42:11;8.70;99.90
1570;DHT22;778;50.120;8.698;2023-04-15T01:44:41;8.70;99.90
1570;DHT22;778;50.120;8.698;2023-04-15T01:47:11;8.70;99.90
1570;DHT22;778;50.120;8.698;2023-04-15T01:49:40;8.70;99.90
1570;DHT22;778;50.120;8.698;2023-04-15T01:52:09;8.60;99.90
1570;DHT22;778;50.120;8.698;2023-04-15T01:54:39;8.60;99.90
1570;DHT22;778;50.120;8.698;2023-04-15T01:57:08;8.60;99.90
1570;DHT22;778;50.120;8.698;2023-04-15T01:59:36;8.70;99.90
1570;DHT22;778;50.120;8.698;2023-04-15T02:02:06;8.70;99.90
1570;DHT22;778;50.120;8.698;2023-04-15T02:04:35;8.60;99.90
1570;DHT22;778;50.120;8.698;2023-04-15T02:07:04;8.60;99.90
1570;DHT22;778;50.120;8.698;2023-04-15T02:09:34;8.70;99.90
1570;DHT22;778;50.120;8.698;2023-04-15T02:12:03;8.70;99.90
1570;DHT22;778;50.120;8.698;2023-04-15T02:14:31;8.60;99.90
1570;DHT22;778;50.120;8.698;2023-04-15T02:17:00;8.60;99.90
1570;DHT22;778;50.120;8.698;2023-04-15T02:19:35;8.60;99.90
1570;DHT22;778;50.120;8.698;2023-04-15T02:22:05;8.50;99.90
1570;DHT22;778;50.120;8.698;2023-04-15T02:24:35;8.50;99.90
1570;DHT22;778;50.120;8.698;2023-04-15T02:27:03;8.50;99.90
1570;DHT22;778;50.120;8.698;2023-04-15T02:29:32;8.50;99.90
1570;DHT22;778;50.120;8.698;2023-04-15T02:32:00;8.60;99.90
1570;DHT22;778;50.120;8.698;2023-04-15T02:34:29;8.60;99.90
1570;DHT22;778;50.120;8.698;2023-04-15T02:37:00;8.60;99.90
1570;DHT22;778;50.120;8.698;2023-04-15T02:39:29;8.50;99.90
1570;DHT22;778;50.120;8.698;2023-04-15T02:41:58;8.50;99.90
1570;DHT22;778;50.120;8.698;2023-04-15T02:44:27;8.50;99.90
1570;DHT22;778;50.120;8.698;2023-04-15T02:46:58;8.40;99.90
1570;DHT22;778;50.120;8.698;2023-04-15T02:49:26;8.30;99.90
1570;DHT22;778;50.120;8.698;2023-04-15T02:51:56;8.30;99.90
1570;DHT22;778;50.120;8.698;2023-04-15T02:54:27;8.20;99.90
1570;DHT22;778;50.120;8.698;2023-04-15T02:56:56;8.20;99.90
1570;DHT22;778;50.120;8.698;2023-04-15T02:59:24;8.20;99.90
1570;DHT22;778;50.120;8.698;2023-04-15T03:01:53;8.10;99.90
1570;DHT22;778;50.120;8.698;2023-04-15T03:04:22;8.20;99.90
1570;DHT22;778;50.120;8.698;2023-04-15T03:06:51;8.20;99.90
1570;DHT22;778;50.120;8.698;2023-04-15T03:09:19;8.10;99.90
1570;DHT22;778;50.120;8.698;2023-04-15T03:11:49;8.10;99.90
1570;DHT22;778;50.120;8.698;2023-04-15T03:14:19;8.10;99.90
1570;DHT22;778;50.120;8.698;2023-04-15T03:16:48;8.00;99.90
1570;DHT22;778;50.120;8.698;2023-04-15T03:19:18;8.10;99.90
1570;DHT22;778;50.120;8.698;2023-04-15T03:21:46;8.00;99.90
1570;DHT22;778;50.120;8.698;2023-04-15T03:24:15;8.10;99.90
1570;DHT22;778;50.120;8.698;2023-04-15T03:26:44;8.00;99.90
1570;DHT22;778;50.120;8.698;2023-04-15T03:29:16;8.00;99.90
1570;DHT22;778;50.120;8.698;2023-04-15T03:31:45;7.90;99.90
1570;DHT22;778;50.120;8.698;2023-04-15T03:34:13;7.90;99.90
1570;DHT22;778;50.120;8.698;2023-04-15T03:36:42;7.90;99.90
1570;DHT22;778;50.120;8.698;2023-04-15T03:39:10;7.80;99.90
1570;DHT22;778;50.120;8.698;2023-04-15T03:41:39;7.80;99.90
1570;DHT22;778;50.120;8.698;2023-04-15T03:44:07;7.80;99.90
1570;DHT22;778;50.120;8.698;2023-04-15T03:46:37;7.80;99.90
1570;DHT22;778;50.120;8.698;2023-04-15T03:49:05;7.80;99.90
1570;DHT22;778;50.120;8.698;2023-04-15T03:51:34;7.80;99.90
1570;DHT22;778;50.120;8.698;2023-04-15T03:54:03;7.80;99.90
1570;DHT22;778;50.120;8.698;2023-04-15T03:56:31;7.80;99.90
1570;DHT22;778;50.120;8.698;2023-04-15T03:59:00;7.70;99.90
1570;DHT22;778;50.120;8.698;2023-04-15T04:01:28;7.70;99.90
1570;DHT22;778;50.120;8.698;2023-04-15T04:03:58;7.70;99.90
1570;DHT22;778;50.120;8.698;2023-04-15T04:06:27;7.70;99.90
1570;DHT22;778;50.120;8.698;2023-04-15T04:08:55;7.70;99.90
1570;DHT22;778;50.120;8.698;2023-04-15T04:11:24;7.80;99.90
1570;DHT22;778;50.120;8.698;2023-04-15T04:13:54;8.30;99.90
1570;DHT22;778;50.120;8.698;2023-04-15T04:16:22;8.70;99.90
1570;DHT22;778;50.120;8.698;2023-04-15T04:18:51;8.90;99.90
1570;DHT22;778;50.120;8.698;2023-04-15T04:21:20;8.90;99.90
1570;DHT22;778;50.120;8.698;2023-04-15T04:23:49;9.00;99.90
1570;DHT22;778;50.120;8.698;2023-04-15T04:26:18;9.10;99.90
1570;DHT22;778;50.120;8.698;2023-04-15T04:28:46;9.10;99.90
1570;DHT22;778;50.120;8.698;2023-04-15T04:31:15;9.10;99.90
1570;DHT22;778;50.120;8.698;2023-04-15T04:33:43;9.10;99.90
1570;DHT22;778;50.120;8.698;2023-04-15T04:36:12;9.10;99.90
1570;DHT22;778;50.120;8.698;2023-04-15T04:38:42;9.10;99.90
1570;DHT22;778;50.120;8.698;2023-04-15T04:41:10;8.90;99.90
1570;DHT22;778;50.120;8.698;2023-04-15T04:43:38;8.70;99.90
1570;DHT22;778;50.120;8.698;2023-04-15T04:46:07;8.70;99.90
1570;DHT22;778;50.120;8.698;2023-04-15T04:48:36;8.60;99.90
1570;DHT22;778;50.120;8.698;2023-04-15T04:51:05;8.40;99.90
1570;DHT22;778;50.120;8.698;2023-04-15T04:53:33;8.30;99.90
1570;DHT22;778;50.120;8.698;2023-04-15T04:56:05;8.00;99.90
1570;DHT22;778;50.120;8.698;2023-04-15T04:58:33;7.80;99.90
1570;DHT22;778;50.120;8.698;2023-04-15T05:01:02;7.60;99.90
1570;DHT22;778;50.120;8.698;2023-04-15T05:03:30;7.60;99.90
1570;DHT22;778;50.120;8.698;2023-04-15T05:05:59;7.50;99.90
1570;DHT22;778;50.120;8.698;2023-04-15T05:08:28;7.50;99.90
1570;DHT22;778;50.120;8.698;2023-04-15T05:10:57;7.80;99.90
1570;DHT22;778;50.120;8.698;2023-04-15T05:13:27;7.90;99.90
1570;DHT22;778;50.120;8.698;2023-04-15T05:15:55;8.00;99.90
1570;DHT22;778;50.120;8.698;2023-04-15T05:18:24;7.90;99.90
1570;DHT22;778;50.120;8.698;2023-04-15T05:20:52;7.90;99.90
1570;DHT22;778;50.120;8.698;2023-04-15T05:23:21;8.10;99.90
1570;DHT22;778;50.120;8.698;2023-04-15T05:25:49;8.10;99.90
1570;DHT22;778;50.120;8.698;2023-04-15T05:28:18;8.30;99.90
1570;DHT22;778;50.120;8.698;2023-04-15T05:30:47;8.20;99.90
1570;DHT22;778;50.120;8.698;2023-04-15T05:33:16;8.10;99.90
1570;DHT22;778;50.120;8.698;2023-04-15T05:35:44;7.90;99.90
1570;DHT22;778;50.120;8.698;2023-04-15T05:38:13;7.80;99.90
1570;DHT22;778;50.120;8.698;2023-04-15T05:40:42;7.70;99.90
1570;DHT22;778;50.120;8.698;2023-04-15T05:43:10;7.60;99.90
1570;DHT22;778;50.120;8.698;2023-04-15T05:45:39;7.60;99.90
1570;DHT22;778;50.120;8.698;2023-04-15T05:48:08;7.70;99.90
1570;DHT22;778;50.120;8.698;2023-04-15T05:50:39;7.80;99.90
1570;DHT22;778;50.120;8.698;2023-04-15T05:53:08;7.70;99.90
1570;DHT22;778;50.120;8.698;2023-04-15T05:55:37;7.60;99.90
1570;DHT22;778;50.120;8.698;2023-04-15T05:58:05;7.60;99.90
1570;DHT22;778;50.120;8.698;2023-04-15T06:00:34;7.70;99.90
1570;DHT22;778;50.120;8.698;2023-04-15T06:03:02;7.60;99.90
1570;DHT22;778;50.120;8.698;2023-04-15T06:05:33;7.50;99.90
1570;DHT22;778;50.120;8.698;2023-04-15T06:08:02;7.60;99.90
1570;DHT22;778;50.120;8.698;2023-04-15T06:10:30;7.60;99.90
1570;DHT22;778;50.120;8.698;2023-04-15T06:13:02;7.70;99.90
1570;DHT22;778;50.120;8.698;2023-04-15T06:15:31;7.70;99.90
1570;DHT22;778;50.120;8.698;2023-04-15T06:17:59;7.70;99.90
1570;DHT22;778;50.120;8.698;2023-04-15T06:20:28;8.00;99.90
1570;DHT22;778;50.120;8.698;2023-04-15T06:22:58;8.10;99.90
1570;DHT22;778;50.120;8.698;2023-04-15T06:25:27;8.30;99.90
1570;DHT22;778;50.120;8.698;2023-04-15T06:27:55;8.30;99.90
1570;DHT22;778;50.120;8.698;2023-04-15T06:30:23;8.40;99.90
1570;DHT22;778;50.120;8.698;2023-04-15T06:32:52;8.60;99.90
1570;DHT22;778;50.120;8.698;2023-04-15T06:35:22;8.60;99.90
1570;DHT22;778;50.120;8.698;2023-04-15T06:37:50;8.70;99.90
1570;DHT22;778;50.120;8.698;2023-04-15T06:40:20;8.80;99.90
1570;DHT22;778;50.120;8.698;2023-04-15T06:42:48;9.00;99.90
1570;DHT22;778;50.120;8.698;2023-04-15T06:45:17;9.10;99.90
1570;DHT22;778;50.120;8.698;2023-04-15T06:47:46;9.20;99.90
1570;DHT22;778;50.120;8.698;2023-04-15T06:50:14;9.40;99.90
1570;DHT22;778;50.120;8.698;2023-04-15T06:52:43;9.50;99.90
1570;DHT22;778;50.120;8.698;2023-04-15T06:55:11;9.60;99.90
1570;DHT22;778;50.120;8.698;2023-04-15T06:57:42;9.70;99.90
1570;DHT22;778;50.120;8.698;2023-04-15T07:00:11;9.80;99.90
1570;DHT22;778;50.120;8.698;2023-04-15T07:02:40;9.90;99.90
1570;DHT22;778;50.120;8.698;2023-04-15T07:05:09;9.90;99.90
1570;DHT22;778;50.120;8.698;2023-04-15T07:07:38;9.90;99.90
1570;DHT22;778;50.120;8.698;2023-04-15T07:10:08;9.90;99.90
1570;DHT22;778;50.120;8.698;2023-04-15T07:12:37;9.90;99.90
1570;DHT22;778;50.120;8.698;2023-04-15T07:15:08;10.10;99.90
1570;DHT22;778;50.120;8.698;2023-04-15T07:17:37;10.10;99.90
1570;DHT22;778;50.120;8.698;2023-04-15T07:20:07;10.30;99.90
1570;DHT22;778;50.120;8.698;2023-04-15T07:22:35;10.30;99.90
1570;DHT22;778;50.120;8.698;2023-04-15T07:25:05;10.40;99.90
1570;DHT22;778;50.120;8.698;2023-04-15T07:27:34;10.50;99.90
1570;DHT22;778;50.120;8.698;2023-04-15T07:30:03;10.50;99.90
1570;DHT22;778;50.120;8.698;2023-04-15T07:32:34;10.60;99.90
1570;DHT22;778;50.120;8.698;2023-04-15T07:35:03;10.50;99.90
1570;DHT22;778;50.120;8.698;2023-04-15T07:37:32;10.40;99.90
1570;DHT22;778;50.120;8.698;2023-04-15T07:40:00;10.30;99.90
1570;DHT22;778;50.120;8.698;2023-04-15T07:42:30;10.20;99.90
1570;DHT22;778;50.120;8.698;2023-04-15T07:44:59;10.10;99.90
1570;DHT22;778;50.120;8.698;2023-04-15T07:47:27;10.20;99.90
1570;DHT22;778;50.120;8.698;2023-04-15T07:49:57;10.20;99.90
1570;DHT22;778;50.120;8.698;2023-04-15T07:52:26;10.20;99.90
1570;DHT22;778;50.120;8.698;2023-04-15T07:54:54;10.30;99.90
1570;DHT22;778;50.120;8.698;2023-04-15T07:57:22;10.50;99.90
1570;DHT22;778;50.120;8.698;2023-04-15T07:59:51;10.50;99.90
1570;DHT22;778;50.120;8.698;2023-04-15T08:02:19;10.60;99.90
1570;DHT22;778;50.120;8.698;2023-04-15T08:04:48;10.70;99.90
1570;DHT22;778;50.120;8.698;2023-04-15T08:07:18;10.80;99.90
1570;DHT22;778;50.120;8.698;2023-04-15T08:09:47;10.90;99.90
1570;DHT22;778;50.120;8.698;2023-04-15T08:12:15;10.90;99.90
1570;DHT22;778;50.120;8.698;2023-04-15T08:14:43;11.00;99.90
1570;DHT22;778;50.120;8.698;2023-04-15T08:17:12;11.00;99.90
1570;DHT22;778;50.120;8.698;2023-04-15T08:19:41;11.00;99.90
1570;DHT22;778;50.120;8.698;2023-04-15T08:22:09;11.00;99.90
1570;DHT22;778;50.120;8.698;2023-04-15T08:24:45;11.10;99.90
1570;DHT22;778;50.120;8.698;2023-04-15T08:27:13;11.20;99.90
1570;DHT22;778;50.120;8.698;2023-04-15T08:29:42;11.20;99.90
1570;DHT22;778;50.120;8.698;2023-04-15T08:32:11;11.20;99.90
1570;DHT22;778;50.120;8.698;2023-04-15T08:34:39;11.30;99.90
1570;DHT22;778;50.120;8.698;2023-04-15T08:37:08;11.50;99.90
1570;DHT22;778;50.120;8.698;2023-04-15T08:39:38;11.50;99.90
1570;DHT22;778;50.120;8.698;2023-04-15T08:42:12;11.60;99.90
1570;DHT22;778;50.120;8.698;2023-04-15T08:44:44;11.80;99.90
1570;DHT22;778;50.120;8.698;2023-04-15T08:47:13;12.10;99.90
1570;DHT22;778;50.120;8.698;2023-04-15T08:49:43;12.10;99.90
1570;DHT22;778;50.120;8.698;2023-04-15T08:52:11;12.30;99.90
1570;DHT22;778;50.120;8.698;2023-04-15T08:54:40;12.30;99.90
1570;DHT22;778;50.120;8.698;2023-04-15T08:57:11;12.30;99.90
1570;DHT22;778;50.120;8.698;2023-04-15T08:59:40;12.40;99.90
1570;DHT22;778;50.120;8.698;2023-04-15T09:02:10;12.30;99.90
1570;DHT22;778;50.120;8.698;2023-04-15T09:04:39;12.30;99.90
1570;DHT22;778;50.120;8.698;2023-04-15T09:07:08;12.20;99.90
1570;DHT22;778;50.120;8.698;2023-04-15T09:09:36;12.10;99.90
1570;DHT22;778;50.120;8.698;2023-04-15T09:12:06;12.10;99.90
1570;DHT22;778;50.120;8.698;2023-04-15T09:14:36;12.00;99.90
1570;DHT22;778;50.120;8.698;2023-04-15T09:17:09;12.00;99.90
1570;DHT22;778;50.120;8.698;2023-04-15T09:19:38;11.90;99.90
1570;DHT22;778;50.120;8.698;2023-04-15T09:22:06;12.00;99.90
1570;DHT22;778;50.120;8.698;2023-04-15T09:24:36;12.10;99.90
1570;DHT22;778;50.120;8.698;2023-04-15T09:27:06;12.20;99.90
1570;DHT22;778;50.120;8.698;2023-04-15T09:29:37;12.30;99.90
1570;DHT22;778;50.120;8.698;2023-04-15T09:32:13;12.40;99.90
1570;DHT22;778;50.120;8.698;2023-04-15T09:34:42;12.40;99.90
1570;DHT22;778;50.120;8.698;2023-04-15T09:37:11;12.20;99.90
1570;DHT22;778;50.120;8.698;2023-04-15T09:39:57;12.20;99.90
1570;DHT22;778;50.120;8.698;2023-04-15T09:42:26;12.30;99.90
1570;DHT22;778;50.120;8.698;2023-04-15T09:45:07;12.30;99.90
1570;DHT22;778;50.120;8.698;2023-04-15T09:47:36;12.30;99.90
1570;DHT22;778;50.120;8.698;2023-04-15T09:50:05;12.10;99.90
1570;DHT22;778;50.120;8.698;2023-04-15T09:52:40;12.00;99.90
1570;DHT22;778;50.120;8.698;2023-04-15T09:55:10;11.80;99.90
1570;DHT22;778;50.120;8.698;2023-04-15T09:57:39;11.60;99.90
1570;DHT22;778;50.120;8.698;2023-04-15T10:00:12;11.60;99.90
1570;DHT22;778;50.120;8.698;2023-04-15T10:02:42;11.50;99.90
1570;DHT22;778;50.120;8.698;2023-04-15T10:05:13;11.30;99.90
1570;DHT22;778;50.120;8.698;2023-04-15T10:07:42;11.20;99.90
1570;DHT22;778;50.120;8.698;2023-04-15T10:10:12;11.40;99.90
1570;DHT22;778;50.120;8.698;2023-04-15T10:12:43;11.50;99.90
1570;DHT22;778;50.120;8.698;2023-04-15T10:15:15;11.30;99.90
1570;DHT22;778;50.120;8.698;2023-04-15T10:17:44;11.40;99.90
1570;DHT22;778;50.120;8.698;2023-04-15T10:20:14;11.50;99.90
1570;DHT22;778;50.120;8.698;2023-04-15T10:22:45;11.70;99.90
1570;DHT22;778;50.120;8.698;2023-04-15T10:25:14;11.80;99.90
1570;DHT22;778;50.120;8.698;2023-04-15T10:27:43;11.80;99.90
1570;DHT22;778;50.120;8.698;2023-04-15T10:30:13;11.90;99.90
1570;DHT22;778;50.120;8.698;2023-04-15T10:32:42;11.90;99.90
1570;DHT22;778;50.120;8.698;2023-04-15T10:35:12;12.00;99.90
1570;DHT22;778;50.120;8.698;2023-04-15T10:37:41;12.20;99.90
1570;DHT22;778;50.120;8.698;2023-04-15T10:40:28;12.20;99.90
1570;DHT22;778;50.120;8.698;2023-04-15T10:42:59;12.30;99.90
1570;DHT22;778;50.120;8.698;2023-04-15T10:45:32;12.40;99.90
1570;DHT22;778;50.120;8.698;2023-04-15T10:48:03;12.50;99.90
1570;DHT22;778;50.120;8.698;2023-04-15T10:50:33;12.60;99.90
1570;DHT22;778;50.120;8.698;2023-04-15T10:53:05;12.50;99.90
1570;DHT22;778;50.120;8.698;2023-04-15T10:55:37;12.50;99.90
1570;DHT22;778;50.120;8.698;2023-04-15T10:58:06;12.50;99.90
1570;DHT22;778;50.120;8.698;2023-04-15T11:00:38;12.60;99.90
1570;DHT22;778;50.120;8.698;2023-04-15T11:03:08;12.50;99.90
1570;DHT22;778;50.120;8.698;2023-04-15T11:05:51;12.40;99.90
1570;DHT22;778;50.120;8.698;2023-04-15T11:08:20;12.40;99.90
1570;DHT22;778;50.120;8.698;2023-04-15T11:11:21;12.30;99.90
1570;DHT22;778;50.120;8.698;2023-04-15T11:13:50;12.40;99.90
1570;DHT22;778;50.120;8.698;2023-04-15T11:16:21;12.40;99.90
1570;DHT22;778;50.120;8.698;2023-04-15T11:18:53;12.30;99.90
1570;DHT22;778;50.120;8.698;2023-04-15T11:21:24;12.30;99.90
1570;DHT22;778;50.120;8.698;2023-04-15T11:23:54;12.40;99.90
1570;DHT22;778;50.120;8.698;2023-04-15T11:26:25;12.40;99.90
1570;DHT22;778;50.120;8.698;2023-04-15T11:28:54;12.10;99.90
1570;DHT22;778;50.120;8.698;2023-04-15T11:31:26;12.00;99.90
1570;DHT22;778;50.120;8.698;2023-04-15T11:33:57;11.90;99.90
1570;DHT22;778;50.120;8.698;2023-04-15T11:36:29;11.90;99.90
1570;DHT22;778;50.120;8.698;2023-04-15T11:38:58;11.90;99.90
1570;DHT22;778;50.120;8.698;2023-04-15T11:41:27;11.80;99.90
1570;DHT22;778;50.120;8.698;2023-04-15T11:43:55;11.80;99.90
1570;DHT22;778;50.120;8.698;2023-04-15T11:46:29;11.70;99.90
1570;DHT22;778;50.120;8.698;2023-04-15T11:48:58;11.50;99.90
1570;DHT22;778;50.120;8.698;2023-04-15T11:51:31;11.50;99.90
1570;DHT22;778;50.120;8.698;2023-04-15T11:54:00;11.60;99.90
1570;DHT22;778;50.120;8.698;2023-04-15T11:56:29;11.60;99.90
1570;DHT22;778;50.120;8.698;2023-04-15T11:58:59;11.60;99.90
1570;DHT22;778;50.120;8.698;2023-04-15T12:01:32;11.60;99.90
1570;DHT22;778;50.120;8.698;2023-04-15T12:04:10;11.50;99.90
1570;DHT22;778;50.120;8.698;2023-04-15T12:06:39;11.40;99.90
1570;DHT22;778;50.120;8.698;2023-04-15T12:09:09;11.30;99.90
1570;DHT22;778;50.120;8.698;2023-04-15T12:11:41;11.30;99.90
1570;DHT22;778;50.120;8.698;2023-04-15T12:14:23;11.30;99.90
1570;DHT22;778;50.120;8.698;2023-04-15T12:16:56;11.20;99.90
1570;DHT22;778;50.120;8.698;2023-04-15T12:19:28;11.20;99.90
1570;DHT22;778;50.120;8.698;2023-04-15T12:21:59;11.20;99.90
1570;DHT22;778;50.120;8.698;2023-04-15T12:24:31;11.20;99.90
1570;DHT22;778;50.120;8.698;2023-04-15T12:27:04;11.20;99.90
1570;DHT22;778;50.120;8.698;2023-04-15T12:29:35;11.10;99.90
1570;DHT22;778;50.120;8.698;2023-04-15T12:32:07;11.10;99.90
1570;DHT22;778;50.120;8.698;2023-04-15T12:34:38;10.90;99.90
1570;DHT22;778;50.120;8.698;2023-04-15T12:37:09;11.00;99.90
1570;DHT22;778;50.120;8.698;2023-04-15T12:39:40;11.10;99.90
1570;DHT22;778;50.120;8.698;2023-04-15T12:42:10;11.00;99.90
1570;DHT22;778;50.120;8.698;2023-04-15T12:44:39;10.90;99.90
1570;DHT22;778;50.120;8.698;2023-04-15T12:47:09;10.90;99.90
1570;DHT22;778;50.120;8.698;2023-04-15T12:49:38;10.90;99.90
1570;DHT22;778;50.120;8.698;2023-04-15T12:52:07;10.90;99.90
1570;DHT22;778;50.120;8.698;2023-04-15T12:54:35;10.90;99.90
1570;DHT22;778;50.120;8.698;2023-04-15T12:57:04;10.90;99.90
1570;DHT22;778;50.120;8.698;2023-04-15T12:59:33;10.90;99.90
1570;DHT22;778;50.120;8.698;2023-04-15T13:02:02;10.90;99.90
1570;DHT22;778;50.120;8.698;2023-04-15T13:04:32;10.80;99.90
1570;DHT22;778;50.120;8.698;2023-04-15T13:07:01;10.80;99.90
1570;DHT22;778;50.120;8.698;2023-04-15T13:09:30;10.80;99.90
1570;DHT22;778;50.120;8.698;2023-04-15T13:11:58;10.90;99.90
1570;DHT22;778;50.120;8.698;2023-04-15T13:14:27;11.00;99.90
1570;DHT22;778;50.120;8.698;2023-04-15T13:16:55;10.90;99.90
1570;DHT22;778;50.120;8.698;2023-04-15T13:19:24;11.00;99.90
1570;DHT22;778;50.120;8.698;2023-04-15T13:21:54;10.90;99.90
1570;DHT22;778;50.120;8.698;2023-04-15T13:24:22;10.90;99.90
1570;DHT22;778;50.120;8.698;2023-04-15T13:26:51;11.00;99.90
1570;DHT22;778;50.120;8.698;2023-04-15T13:29:19;10.90;99.90
1570;DHT22;778;50.120;8.698;2023-04-15T13:31:48;11.00;99.90
1570;DHT22;778;50.120;8.698;2023-04-15T13:34:17;11.00;99.90
1570;DHT22;778;50.120;8.698;2023-04-15T13:36:45;11.10;99.90
1570;DHT22;778;50.120;8.698;2023-04-15T13:39:15;11.20;99.90
1570;DHT22;778;50.120;8.698;2023-04-15T13:41:43;11.20;99.90
1570;DHT22;778;50.120;8.698;2023-04-15T13:44:12;11.10;99.90
1570;DHT22;778;50.120;8.698;2023-04-15T13:46:40;11.20;99.90
1570;DHT22;778;50.120;8.698;2023-04-15T13:49:09;11.10;99.90
1570;DHT22;778;50.120;8.698;2023-04-15T13:51:37;11.20;99.90
1570;DHT22;778;50.120;8.698;2023-04-15T13:54:06;11.10;99.90
1570;DHT22;778;50.120;8.698;2023-04-15T13:56:36;11.10;99.90
1570;DHT22;778;50.120;8.698;2023-04-15T13:59:05;11.10;99.90
1570;DHT22;778;50.120;8.698;2023-04-15T14:01:35;11.20;99.90
1570;DHT22;778;50.120;8.698;2023-04-15T14:04:04;11.10;99.90
1570;DHT22;778;50.120;8.698;2023-04-15T14:06:33;11.10;99.90
1570;DHT22;778;50.120;8.698;2023-04-15T14:09:01;11.10;99.90
1570;DHT22;778;50.120;8.698;2023-04-15T14:11:30;11.20;99.90
1570;DHT22;778;50.120;8.698;2023-04-15T14:14:02;11.10;99.90
1570;DHT22;778;50.120;8.698;2023-04-15T14:16:31;11.00;99.90
1570;DHT22;778;50.120;8.698;2023-04-15T14:19:00;11.10;99.90
1570;DHT22;778;50.120;8.698;2023-04-15T14:21:30;11.10;99.90
1570;DHT22;778;50.120;8.698;2023-04-15T14:23:59;11.10;99.90
1570;DHT22;778;50.120;8.698;2023-04-15T14:26:28;11.00;99.90
1570;DHT22;778;50.120;8.698;2023-04-15T14:28:56;11.00;99.90
1570;DHT22;778;50.120;8.698;2023-04-15T14:31:26;11.00;99.90
1570;DHT22;778;50.120;8.698;2023-04-15T14:33:54;11.00;99.90
1570;DHT22;778;50.120;8.698;2023-04-15T14:36:23;11.00;99.90
1570;DHT22;778;50.120;8.698;2023-04-15T14:38:51;11.10;99.90
1570;DHT22;778;50.120;8.698;2023-04-15T14:41:20;11.10;99.90
1570;DHT22;778;50.120;8.698;2023-04-15T14:43:49;11.10;99.90
1570;DHT22;778;50.120;8.698;2023-04-15T14:46:17;11.10;99.90
1570;DHT22;778;50.120;8.698;2023-04-15T14:48:47;11.10;99.90
1570;DHT22;778;50.120;8.698;2023-04-15T14:51:16;11.00;99.90
1570;DHT22;778;50.120;8.698;2023-04-15T14:53:44;11.00;99.90
1570;DHT22;778;50.120;8.698;2023-04-15T14:56:13;10.90;99.90
1570;DHT22;778;50.120;8.698;2023-04-15T14:58:41;10.90;99.90
1570;DHT22;778;50.120;8.698;2023-04-15T15:01:09;10.90;99.90
1570;DHT22;778;50.120;8.698;2023-04-15T15:03:38;10.90;99.90
1570;DHT22;778;50.120;8.698;2023-04-15T15:06:08;10.90;99.90
1570;DHT22;778;50.120;8.698;2023-04-15T15:08:37;10.80;99.90
1570;DHT22;778;50.120;8.698;2023-04-15T15:11:05;10.90;99.90
1570;DHT22;778;50.120;8.698;2023-04-15T15:13:34;10.90;99.90
1570;DHT22;778;50.120;8.698;2023-04-15T15:16:02;10.80;99.90
1570;DHT22;778;50.120;8.698;2023-04-15T15:18:31;10.80;99.90
1570;DHT22;778;50.120;8.698;2023-04-15T15:20:59;10.80;99.90
1570;DHT22;778;50.120;8.698;2023-04-15T15:23:29;10.90;99.90
1570;DHT22;778;50.120;8.698;2023-04-15T15:25:58;10.80;99.90
1570;DHT22;778;50.120;8.698;2023-04-15T15:28:26;10.80;99.90
1570;DHT22;778;50.120;8.698;2023-04-15T15:30:54;10.80;99.90
1570;DHT22;778;50.120;8.698;2023-04-15T15:33:23;10.80;99.90
1570;DHT22;778;50.120;8.698;2023-04-15T15:35:52;10.70;99.90
1570;DHT22;778;50.120;8.698;2023-04-15T15:38:21;10.80;99.90
1570;DHT22;778;50.120;8.698;2023-04-15T15:40:51;10.70;99.90
1570;DHT22;778;50.120;8.698;2023-04-15T15:43:19;10.60;99.90
1570;DHT22;778;50.120;8.698;2023-04-15T15:45:48;10.60;99.90
1570;DHT22;778;50.120;8.698;2023-04-15T15:48:17;10.60;99.90
1570;DHT22;778;50.120;8.698;2023-04-15T15:50:46;10.60;99.90
1570;DHT22;778;50.120;8.698;2023-04-15T15:53:14;10.60;99.90
1570;DHT22;778;50.120;8.698;2023-04-15T15:55:46;10.50;99.90
1570;DHT22;778;50.120;8.698;2023-04-15T15:58:16;10.60;99.90
1570;DHT22;778;50.120;8.698;2023-04-15T16:00:45;10.50;99.90
1570;DHT22;778;50.120;8.698;2023-04-15T16:03:14;10.50;99.90
1570;DHT22;778;50.120;8.698;2023-04-15T16:05:42;10.50;99.90
1570;DHT22;778;50.120;8.698;2023-04-15T16:08:11;10.50;99.90
1570;DHT22;778;50.120;8.698;2023-04-15T16:10:40;10.50;99.90
1570;DHT22;778;50.120;8.698;2023-04-15T16:13:08;10.40;99.90
1570;DHT22;778;50.120;8.698;2023-04-15T16:15:38;10.40;99.90
1570;DHT22;778;50.120;8.698;2023-04-15T16:18:06;10.40;99.90
1570;DHT22;778;50.120;8.698;2023-04-15T16:20:35;10.40;99.90
1570;DHT22;778;50.120;8.698;2023-04-15T16:23:09;10.40;99.90
1570;DHT22;778;50.120;8.698;2023-04-15T16:25:41;10.40;99.90
1570;DHT22;778;50.120;8.698;2023-04-15T16:28:10;10.40;99.90
1570;DHT22;778;50.120;8.698;2023-04-15T16:30:54;10.40;99.90
1570;DHT22;778;50.120;8.698;2023-04-15T16:33:23;10.30;99.90
1570;DHT22;778;50.120;8.698;2023-04-15T16:35:51;10.30;99.90
1570;DHT22;778;50.120;8.698;2023-04-15T16:38:19;10.20;99.90